Time;durP1;ratioP1;P1;durP2;ratioP2;P2;SDS_P1;SDS_P2;PMS_P1;PMS_P2;Temp;Humidity;BMP_temperature;BMP_pressure;BME280_temperature;BME280_humidity;BME280_pressure;Samples;Min_cycle;Max_cycle;Signal;HPM_P1;HPM_P2
2021/12/05 00:17:35;;;;;;;53.00;47.63;;;4.20;99.90;;;;;;4371889;32;20237;-63
2021/12/05 00:22:42;;;;;;;51.40;46.90;;;4.20;99.90;;;;;;4325771;33;20191;-64
2021/12/05 00:25:12;;;;;;;53.27;48.33;;;4.10;99.90;;;;;;4328003;33;20162;-64
2021/12/05 00:27:45;;;;;;;55.77;50.73;;;4.10;99.90;;;;;;4328042;33;20526;-62
2021/12/05 00:30:35;;;;;;;56.13;50.80;;;4.00;99.90;;;;;;4327870;33;20534;-64
2021/12/05 00:33:18;;;;;;;49.73;45.50;;;4.00;99.90;;;;;;4326159;33;20253;-64
2021/12/05 00:39:08;;;;;;;52.20;48.00;;;3.90;99.90;;;;;;4300880;33;20227;-64
2021/12/05 00:44:50;;;;;;;52.20;47.83;;;3.70;99.90;;;;;;4291199;33;20609;-63
2021/12/05 00:47:33;;;;;;;51.50;47.73;;;3.70;99.90;;;;;;4357228;33;20254;-62
2021/12/05 00:50:20;;;;;;;49.07;44.90;;;3.70;99.90;;;;;;4354711;33;20149;-62
2021/12/05 00:53:14;;;;;;;51.63;47.87;;;3.80;99.90;;;;;;4348586;33;20203;-63
2021/12/05 00:55:52;;;;;;;58.27;53.50;;;3.80;99.90;;;;;;4353253;33;20164;-62
2021/12/05 01:01:33;;;;;;;57.57;52.90;;;3.90;99.90;;;;;;4414299;32;20207;-62
2021/12/05 01:07:10;;;;;;;57.40;52.40;;;3.90;99.90;;;;;;4361567;32;20148;-62
2021/12/05 01:09:46;;;;;;;58.03;53.03;;;3.90;99.90;;;;;;4364081;32;20220;-61
2021/12/05 01:12:22;;;;;;;53.77;49.83;;;3.90;99.90;;;;;;4362417;32;20320;-61
2021/12/05 01:15:00;;;;;;;55.60;50.90;;;3.90;99.90;;;;;;4375026;32;20218;-61
2021/12/05 01:17:34;;;;;;;60.07;55.87;;;3.80;99.90;;;;;;4416432;32;20198;-62
2021/12/05 01:20:04;;;;;;;55.67;51.33;;;3.90;99.90;;;;;;4402646;32;20204;-62
2021/12/05 01:22:35;;;;;;;57.10;52.50;;;3.80;99.90;;;;;;4421476;32;20168;-62
2021/12/05 01:25:14;;;;;;;62.70;58.40;;;3.90;99.90;;;;;;4412361;32;20595;-63
2021/12/05 01:27:46;;;;;;;63.57;58.00;;;3.90;99.90;;;;;;4418717;32;20607;-62
2021/12/05 01:30:23;;;;;;;55.63;51.37;;;3.80;99.90;;;;;;4412527;32;20210;-62
2021/12/05 01:32:59;;;;;;;60.37;55.80;;;3.80;99.90;;;;;;4412635;32;20198;-62
2021/12/05 01:35:42;;;;;;;53.90;49.63;;;3.90;99.90;;;;;;4417870;32;20464;-62
2021/12/05 01:38:15;;;;;;;55.13;50.90;;;3.90;99.90;;;;;;4397654;32;20243;-62
2021/12/05 01:49:52;;;;;;;47.87;44.57;;;4.00;99.90;;;;;;4348832;32;20176;-62
2021/12/05 01:52:32;;;;;;;54.40;49.83;;;4.00;99.90;;;;;;4338521;32;20211;-62
2021/12/05 01:55:21;;;;;;;53.77;49.87;;;4.00;99.90;;;;;;4352735;32;20541;-62
2021/12/05 01:58:06;;;;;;;52.53;48.73;;;4.00;99.90;;;;;;4354900;32;20248;-63
2021/12/05 02:09:21;;;;;;;54.20;50.60;;;3.70;99.90;;;;;;4307822;33;20166;-62
2021/12/05 02:12:12;;;;;;;54.60;49.80;;;3.50;99.90;;;;;;4301834;33;20652;-62
2021/12/05 02:31:40;;;;;;;60.47;55.77;;;3.70;99.90;;;;;;4404918;32;20166;-62
2021/12/05 02:37:07;;;;;;;58.30;54.10;;;3.40;99.90;;;;;;4380067;32;20156;-62
2021/12/05 02:39:52;;;;;;;52.90;49.40;;;3.30;99.90;;;;;;4379607;32;20151;-62
2021/12/05 02:42:29;;;;;;;55.47;52.13;;;3.30;99.90;;;;;;4414983;32;20151;-62
2021/12/05 02:44:56;;;;;;;53.90;50.03;;;3.40;99.90;;;;;;4403966;32;20147;-62
2021/12/05 02:47:26;;;;;;;60.63;56.37;;;3.30;99.90;;;;;;4414873;32;20167;-62
2021/12/05 02:49:56;;;;;;;55.97;51.60;;;3.20;99.90;;;;;;4406590;32;20251;-63
2021/12/05 02:52:29;;;;;;;56.83;53.07;;;3.20;99.90;;;;;;4418666;32;20156;-63
2021/12/05 02:54:59;;;;;;;52.97;49.50;;;3.10;99.90;;;;;;4412768;32;20712;-61
2021/12/05 02:57:46;;;;;;;54.10;50.03;;;3.10;99.90;;;;;;4405531;32;20630;-62
2021/12/05 03:00:20;;;;;;;55.27;50.87;;;3.10;99.90;;;;;;4405641;32;20284;-61
2021/12/05 03:02:50;;;;;;;59.27;54.53;;;3.10;99.90;;;;;;4412546;32;20619;-62
2021/12/05 03:05:20;;;;;;;59.43;55.03;;;3.10;99.90;;;;;;4413675;32;20146;-62
2021/12/05 03:07:50;;;;;;;55.30;51.53;;;3.20;99.90;;;;;;4405247;32;20152;-62
2021/12/05 03:10:20;;;;;;;58.73;55.23;;;3.20;99.90;;;;;;4409786;32;20522;-63
2021/12/05 03:12:47;;;;;;;58.53;54.90;;;3.20;99.90;;;;;;4406373;32;20263;-61
2021/12/05 03:15:17;;;;;;;51.67;48.67;;;3.30;99.90;;;;;;4436328;32;20281;-62
2021/12/05 03:17:44;;;;;;;56.70;52.77;;;3.40;99.90;;;;;;4448950;32;20161;-62
2021/12/05 03:20:14;;;;;;;52.60;48.33;;;3.50;99.90;;;;;;4437831;32;20144;-62
2021/12/05 03:22:41;;;;;;;53.40;49.90;;;3.50;99.90;;;;;;4437991;32;20155;-62
2021/12/05 03:25:10;;;;;;;53.23;49.37;;;3.50;99.90;;;;;;4446655;32;20508;-63
2021/12/05 03:27:39;;;;;;;59.47;56.13;;;3.60;99.90;;;;;;4449729;32;20162;-62
2021/12/05 03:30:08;;;;;;;50.47;46.93;;;3.60;99.90;;;;;;4439078;32;20209;-62
2021/12/05 03:32:36;;;;;;;57.27;53.80;;;3.60;99.90;;;;;;4447229;32;20605;-62
2021/12/05 03:35:04;;;;;;;61.70;57.17;;;3.70;99.90;;;;;;4437798;32;20165;-61
2021/12/05 03:37:31;;;;;;;55.23;52.17;;;3.70;99.90;;;;;;4449060;32;20226;-63
2021/12/05 03:39:58;;;;;;;58.70;54.37;;;3.70;99.90;;;;;;4449841;32;20175;-63
2021/12/05 03:42:26;;;;;;;51.20;47.97;;;3.80;99.90;;;;;;4448229;32;20237;-62
2021/12/05 03:44:53;;;;;;;53.70;49.07;;;3.80;99.90;;;;;;4440684;32;20158;-63
2021/12/05 03:47:20;;;;;;;50.07;46.63;;;3.80;99.90;;;;;;4447990;32;20177;-63
2021/12/05 03:49:47;;;;;;;49.17;46.30;;;3.80;99.90;;;;;;4438656;32;20172;-62
2021/12/05 03:52:17;;;;;;;51.13;47.53;;;3.90;99.90;;;;;;4449066;32;20206;-62
2021/12/05 03:54:45;;;;;;;50.37;46.90;;;3.90;99.90;;;;;;4443739;32;20214;-62
2021/12/05 03:57:15;;;;;;;49.10;46.00;;;3.90;99.90;;;;;;4443212;32;20161;-62
2021/12/05 03:59:44;;;;;;;55.17;52.10;;;3.90;99.90;;;;;;4437954;32;20623;-62
2021/12/05 04:02:11;;;;;;;49.63;46.13;;;3.90;99.90;;;;;;4449147;32;20142;-62
2021/12/05 04:04:40;;;;;;;53.60;49.87;;;4.00;99.90;;;;;;4435854;32;20225;-63
2021/12/05 04:07:08;;;;;;;54.70;50.97;;;4.00;99.90;;;;;;4446955;32;20143;-63
2021/12/05 04:09:35;;;;;;;55.07;50.70;;;4.00;99.90;;;;;;4440121;32;20178;-63
2021/12/05 04:12:03;;;;;;;52.37;48.87;;;4.00;99.90;;;;;;4438827;32;20146;-62
2021/12/05 04:14:33;;;;;;;53.80;50.27;;;4.10;99.90;;;;;;4447353;32;20151;-63
2021/12/05 04:17:03;;;;;;;53.60;50.03;;;4.10;99.90;;;;;;4444074;32;20212;-62
2021/12/05 04:19:30;;;;;;;49.93;46.80;;;4.10;99.90;;;;;;4441156;32;20210;-62
2021/12/05 04:21:57;;;;;;;51.40;47.93;;;4.10;99.90;;;;;;4444411;32;20174;-62
2021/12/05 04:24:24;;;;;;;51.63;47.53;;;4.10;99.90;;;;;;4440740;32;20667;-63
2021/12/05 04:26:54;;;;;;;50.37;47.13;;;4.10;99.90;;;;;;4445116;32;20527;-63
2021/12/05 04:29:21;;;;;;;50.60;47.17;;;4.10;99.90;;;;;;4448351;32;20143;-62
2021/12/05 04:31:48;;;;;;;52.60;49.20;;;4.10;99.90;;;;;;4440142;32;20508;-62
2021/12/05 04:34:17;;;;;;;52.33;49.37;;;4.20;99.90;;;;;;4451014;32;20266;-62
2021/12/05 04:36:44;;;;;;;52.03;48.77;;;4.20;99.90;;;;;;4449064;32;20234;-62
2021/12/05 04:39:12;;;;;;;47.63;43.33;;;4.20;99.90;;;;;;4443490;32;20163;-63
2021/12/05 04:41:39;;;;;;;48.63;45.13;;;4.20;99.90;;;;;;4440145;32;20171;-62
2021/12/05 04:44:07;;;;;;;47.70;44.23;;;4.20;99.90;;;;;;4450987;32;20215;-62
2021/12/05 04:46:34;;;;;;;51.10;48.03;;;4.20;99.90;;;;;;4445346;32;20560;-63
2021/12/05 04:49:01;;;;;;;48.97;45.23;;;4.20;99.90;;;;;;4453019;32;20155;-62
2021/12/05 04:51:34;;;;;;;47.37;44.30;;;4.20;99.90;;;;;;4446417;32;20167;-62
2021/12/05 04:54:02;;;;;;;51.90;48.33;;;4.30;99.90;;;;;;4438760;32;20159;-62
2021/12/05 04:56:29;;;;;;;45.33;42.33;;;4.20;99.90;;;;;;4445399;32;20147;-62
2021/12/05 04:58:57;;;;;;;52.60;48.87;;;4.20;99.90;;;;;;4453177;32;20159;-63
2021/12/05 05:01:24;;;;;;;48.17;44.50;;;4.30;99.90;;;;;;4453870;32;20206;-62
2021/12/05 05:03:51;;;;;;;45.37;42.73;;;4.30;99.90;;;;;;4440221;32;20218;-63
2021/12/05 05:06:19;;;;;;;44.93;42.03;;;4.40;99.90;;;;;;4445844;32;20163;-63
2021/12/05 05:08:50;;;;;;;45.27;42.07;;;4.40;99.90;;;;;;4445386;32;20469;-63
2021/12/05 05:11:19;;;;;;;44.37;41.50;;;4.30;99.90;;;;;;4443035;32;20555;-63
2021/12/05 05:13:46;;;;;;;51.10;46.13;;;4.30;99.90;;;;;;4440462;32;20240;-63
2021/12/05 05:16:15;;;;;;;47.17;44.23;;;4.40;99.90;;;;;;4450985;32;20178;-62
2021/12/05 05:18:46;;;;;;;44.07;41.40;;;4.30;99.90;;;;;;4437463;32;20555;-63
2021/12/05 05:21:19;;;;;;;45.30;42.27;;;4.40;99.90;;;;;;4438070;32;20576;-63
2021/12/05 05:24:06;;;;;;;48.27;44.70;;;4.40;99.90;;;;;;4440761;32;20591;-62
2021/12/05 05:29:44;;;;;;;48.17;44.97;;;4.40;99.90;;;;;;4437673;32;20489;-63
2021/12/05 05:40:52;;;;;;;48.67;45.53;;;4.50;99.90;;;;;;4441757;32;20216;-63
2021/12/05 05:46:09;;;;;;;49.53;46.50;;;4.50;99.90;;;;;;4439953;32;20193;-63
2021/12/05 05:48:50;;;;;;;47.37;43.80;;;4.50;99.90;;;;;;4448493;32;20243;-63
2021/12/05 05:51:17;;;;;;;44.57;41.97;;;4.60;99.90;;;;;;4447753;32;20195;-63
2021/12/05 05:53:47;;;;;;;46.77;43.80;;;4.60;99.90;;;;;;4440093;32;20606;-62
2021/12/05 05:56:19;;;;;;;44.97;41.90;;;4.60;99.90;;;;;;4447801;32;20473;-62
2021/12/05 05:58:49;;;;;;;45.33;42.33;;;4.70;99.90;;;;;;4438215;32;20201;-63
2021/12/05 06:01:21;;;;;;;50.67;47.10;;;4.70;99.90;;;;;;4442936;32;20250;-63
2021/12/05 06:03:49;;;;;;;48.67;44.97;;;4.70;99.90;;;;;;4438392;32;20181;-62
2021/12/05 06:06:17;;;;;;;45.07;41.87;;;4.70;99.90;;;;;;4450623;32;20677;-63
2021/12/05 06:08:46;;;;;;;44.43;41.27;;;4.70;99.90;;;;;;4445940;32;20661;-63
2021/12/05 06:11:17;;;;;;;40.63;37.67;;;4.80;99.90;;;;;;4453759;32;20203;-63
2021/12/05 06:13:45;;;;;;;39.50;36.67;;;4.80;99.90;;;;;;4439322;32;20174;-63
2021/12/05 06:16:13;;;;;;;40.37;37.47;;;4.70;99.90;;;;;;4442065;32;20162;-63
2021/12/05 06:18:41;;;;;;;41.77;38.87;;;4.80;99.90;;;;;;4441030;32;20484;-62
2021/12/05 06:21:09;;;;;;;41.07;38.57;;;4.80;99.90;;;;;;4437913;32;20222;-63
2021/12/05 06:23:37;;;;;;;40.93;37.70;;;4.80;99.90;;;;;;4437599;32;20170;-62
2021/12/05 06:26:07;;;;;;;40.57;37.30;;;4.90;99.90;;;;;;4439922;32;20234;-62
2021/12/05 06:28:39;;;;;;;39.03;36.33;;;5.00;99.90;;;;;;4446697;32;20147;-62
2021/12/05 06:31:18;;;;;;;39.73;36.93;;;4.90;99.90;;;;;;4437031;32;20169;-62
2021/12/05 06:36:56;;;;;;;41.53;38.40;;;4.90;99.90;;;;;;4438530;32;20157;-62
2021/12/05 06:39:28;;;;;;;41.23;38.40;;;4.90;99.90;;;;;;4439878;32;20147;-63
2021/12/05 06:42:22;;;;;;;43.80;40.87;;;5.00;99.90;;;;;;4438524;32;20147;-63
2021/12/05 06:47:35;;;;;;;39.37;36.13;;;4.90;99.90;;;;;;4450766;32;20530;-62
2021/12/05 06:50:02;;;;;;;40.37;37.13;;;4.90;99.90;;;;;;4439161;32;20186;-62
2021/12/05 06:52:29;;;;;;;40.70;38.03;;;4.90;99.90;;;;;;4445090;32;20171;-62
2021/12/05 06:54:56;;;;;;;40.27;37.43;;;4.90;99.90;;;;;;4442755;32;20533;-63
2021/12/05 06:57:22;;;;;;;40.77;38.17;;;5.00;99.90;;;;;;4451851;32;20600;-63
2021/12/05 06:59:51;;;;;;;40.07;37.17;;;5.00;99.90;;;;;;4439098;32;20218;-63
2021/12/05 07:02:21;;;;;;;40.27;37.60;;;5.00;99.90;;;;;;4449191;32;20163;-63
2021/12/05 07:05:12;;;;;;;44.10;41.00;;;5.00;99.90;;;;;;4443806;32;20295;-62
2021/12/05 07:07:41;;;;;;;41.90;38.90;;;5.00;99.90;;;;;;4443033;32;20169;-63
2021/12/05 07:10:10;;;;;;;40.40;37.63;;;5.00;99.90;;;;;;4440651;32;20169;-63
2021/12/05 07:15:30;;;;;;;44.10;41.07;;;5.00;99.90;;;;;;4437781;32;20144;-63
2021/12/05 07:20:53;;;;;;;38.83;36.43;;;5.00;99.90;;;;;;4443931;32;20192;-63
2021/12/05 07:23:34;;;;;;;40.47;38.07;;;5.00;99.90;;;;;;4448749;32;20171;-62
2021/12/05 07:26:10;;;;;;;42.03;38.80;;;5.00;99.90;;;;;;4449805;32;20166;-62
2021/12/05 07:42:23;;;;;;;46.93;43.73;;;5.00;99.90;;;;;;4444278;32;20204;-64
2021/12/05 07:44:50;;;;;;;44.73;41.73;;;5.00;99.90;;;;;;4442954;32;20164;-64
2021/12/05 07:47:21;;;;;;;43.30;40.47;;;5.00;99.90;;;;;;4442129;32;20143;-62
2021/12/05 07:49:49;;;;;;;42.83;40.03;;;5.00;99.90;;;;;;4443702;32;20560;-61
2021/12/05 07:52:21;;;;;;;42.70;39.63;;;5.00;99.90;;;;;;4443389;32;20203;-61
2021/12/05 07:54:54;;;;;;;45.30;41.90;;;5.00;99.90;;;;;;4442058;32;20211;-61
2021/12/05 07:57:26;;;;;;;43.30;40.47;;;5.00;99.90;;;;;;4444642;32;20177;-64
2021/12/05 08:00:06;;;;;;;41.67;38.37;;;5.00;99.90;;;;;;4444657;32;20163;-63
2021/12/05 08:16:27;;;;;;;40.30;37.47;;;5.00;99.90;;;;;;4389614;32;20266;-62
2021/12/05 08:18:56;;;;;;;40.27;37.13;;;5.00;99.90;;;;;;4390095;32;20168;-64
2021/12/05 08:21:23;;;;;;;40.27;36.90;;;5.10;99.90;;;;;;4388084;32;20176;-62
2021/12/05 08:23:50;;;;;;;40.43;37.33;;;5.10;99.90;;;;;;4389052;32;20196;-64
2021/12/05 08:26:21;;;;;;;44.67;41.57;;;5.10;99.90;;;;;;4389555;32;20263;-65
2021/12/05 08:29:06;;;;;;;41.23;38.13;;;5.10;99.90;;;;;;4382788;32;20454;-62
2021/12/05 08:31:45;;;;;;;41.30;38.30;;;5.10;99.90;;;;;;4387222;32;20231;-63
2021/12/05 08:34:43;;;;;;;38.33;35.43;;;5.10;99.90;;;;;;4387325;32;20206;-63
2021/12/05 08:43:19;;;;;;;40.27;37.27;;;5.20;99.90;;;;;;4394725;32;20192;-63
2021/12/05 08:46:12;;;;;;;39.67;36.97;;;5.20;99.90;;;;;;4399210;32;20239;-63
2021/12/05 09:22:19;;;;;;;47.67;44.10;;;5.50;99.90;;;;;;4397266;32;20213;-63
2021/12/05 09:25:02;;;;;;;43.20;40.07;;;5.60;99.90;;;;;;4397298;32;20180;-63
2021/12/05 10:03:09;;;;;;;38.10;34.80;;;5.80;99.90;;;;;;4445413;32;20177;-64
2021/12/05 10:11:15;;;;;;;42.50;39.60;;;5.90;99.90;;;;;;4441944;32;20249;-62
2021/12/05 10:13:57;;;;;;;44.10;40.60;;;5.90;99.90;;;;;;4448842;32;20537;-63
2021/12/05 10:16:53;;;;;;;41.47;38.20;;;6.00;99.90;;;;;;4443674;32;20199;-63
2021/12/05 10:36:14;;;;;;;40.73;37.70;;;6.60;99.90;;;;;;4445548;32;20256;-63
2021/12/05 10:38:46;;;;;;;43.10;39.57;;;6.70;99.90;;;;;;4447080;32;20593;-63
2021/12/05 10:44:02;;;;;;;46.10;42.57;;;6.60;99.90;;;;;;4402470;32;20219;-63
2021/12/05 10:46:30;;;;;;;43.70;40.57;;;6.70;99.90;;;;;;4402877;32;20195;-63
2021/12/05 10:49:03;;;;;;;42.83;39.33;;;6.80;99.90;;;;;;4404552;32;20244;-63
2021/12/05 10:51:32;;;;;;;43.17;39.83;;;6.80;99.90;;;;;;4397816;32;20501;-63
2021/12/05 10:54:01;;;;;;;41.60;38.43;;;6.90;99.90;;;;;;4398426;32;20163;-62
2021/12/05 10:56:30;;;;;;;45.97;42.47;;;7.00;99.90;;;;;;4398754;32;20223;-63
2021/12/05 10:59:00;;;;;;;41.00;37.87;;;7.10;99.90;;;;;;4399544;32;20179;-63
2021/12/05 11:01:32;;;;;;;41.07;37.83;;;7.20;99.90;;;;;;4400548;32;20164;-63
2021/12/05 11:04:02;;;;;;;42.87;39.67;;;7.40;99.90;;;;;;4399245;32;20248;-62
2021/12/05 11:06:39;;;;;;;39.53;36.33;;;7.60;99.90;;;;;;4400989;32;20300;-63
2021/12/05 11:09:12;;;;;;;44.00;40.83;;;7.80;99.90;;;;;;4400804;32;20175;-63
2021/12/05 11:11:39;;;;;;;42.00;39.00;;;7.80;99.90;;;;;;4400501;32;20600;-62
2021/12/05 11:14:11;;;;;;;40.70;37.63;;;7.80;99.90;;;;;;4401903;32;20650;-62
2021/12/05 11:16:43;;;;;;;38.97;35.90;;;7.90;99.90;;;;;;4402521;32;20321;-63
2021/12/05 11:26:29;;;;;;;39.43;36.53;;;7.90;99.90;;;;;;4444470;32;20170;-63
2021/12/05 11:28:56;;;;;;;38.03;35.03;;;7.90;99.90;;;;;;4440556;32;20150;-63
2021/12/05 11:31:25;;;;;;;40.70;37.47;;;7.70;99.90;;;;;;4437969;32;20173;-63
2021/12/05 11:33:55;;;;;;;38.83;36.03;;;7.70;99.90;;;;;;4438089;32;20159;-62
2021/12/05 11:36:24;;;;;;;40.50;37.33;;;7.60;99.90;;;;;;4447612;32;20188;-62
2021/12/05 11:38:51;;;;;;;41.30;38.10;;;7.50;99.90;;;;;;4440643;32;20515;-64
2021/12/05 11:41:20;;;;;;;38.53;35.63;;;7.40;99.90;;;;;;4452974;32;20238;-62
2021/12/05 11:43:51;;;;;;;37.73;34.93;;;7.50;99.90;;;;;;4448208;32;20154;-62
2021/12/05 11:46:22;;;;;;;37.20;34.20;;;7.40;99.90;;;;;;4438516;32;20219;-64
2021/12/05 11:48:54;;;;;;;38.83;35.93;;;7.40;99.90;;;;;;4441186;32;20156;-62
2021/12/05 11:51:28;;;;;;;38.37;35.47;;;7.30;99.90;;;;;;4444436;32;20198;-64
2021/12/05 11:53:57;;;;;;;37.03;34.33;;;7.20;99.90;;;;;;4446295;32;20155;-63
2021/12/05 11:56:43;;;;;;;34.07;31.47;;;7.40;99.90;;;;;;4439323;32;20222;-64
2021/12/05 11:59:14;;;;;;;38.23;35.43;;;7.40;99.90;;;;;;4446050;32;20218;-63
2021/12/05 12:01:43;;;;;;;36.23;33.10;;;7.40;99.90;;;;;;4443266;32;20193;-64
2021/12/05 12:04:15;;;;;;;37.10;34.13;;;7.30;99.90;;;;;;4449745;32;20189;-62
2021/12/05 12:06:46;;;;;;;40.27;37.13;;;7.40;99.90;;;;;;4439332;32;20189;-62
2021/12/05 12:09:12;;;;;;;40.67;37.50;;;7.20;99.90;;;;;;4445275;32;20175;-64
2021/12/05 12:11:39;;;;;;;38.00;35.30;;;7.10;99.90;;;;;;4449814;32;20170;-63
2021/12/05 12:14:06;;;;;;;37.67;34.93;;;7.10;99.90;;;;;;4444132;32;20227;-63
2021/12/05 12:16:34;;;;;;;36.60;33.70;;;7.10;99.90;;;;;;4438342;32;20218;-63
2021/12/05 12:19:02;;;;;;;39.50;36.77;;;7.00;99.90;;;;;;4438310;32;20242;-62
2021/12/05 12:21:39;;;;;;;40.90;37.70;;;7.00;99.90;;;;;;4439464;32;20178;-65
2021/12/05 12:24:08;;;;;;;39.70;36.80;;;6.90;99.90;;;;;;4441964;32;20230;-63
2021/12/05 12:26:35;;;;;;;37.67;34.87;;;6.80;99.90;;;;;;4442670;32;20154;-63
2021/12/05 12:29:03;;;;;;;39.07;36.30;;;6.80;99.90;;;;;;4436797;32;20539;-62
2021/12/05 12:31:34;;;;;;;40.13;37.13;;;6.80;99.90;;;;;;4443971;32;20207;-62
2021/12/05 12:34:05;;;;;;;38.83;35.77;;;6.80;99.90;;;;;;4440693;32;20155;-62
2021/12/05 12:36:39;;;;;;;37.20;34.20;;;6.80;99.90;;;;;;4440135;32;20209;-62
2021/12/05 12:39:24;;;;;;;40.83;37.67;;;6.80;99.90;;;;;;4442529;32;20211;-62
2021/12/05 12:42:15;;;;;;;42.70;39.50;;;6.80;99.90;;;;;;4435715;32;20155;-62
2021/12/05 12:45:02;;;;;;;41.40;38.23;;;6.80;99.90;;;;;;4435429;32;20559;-62
2021/12/05 12:47:31;;;;;;;35.43;32.20;;;6.80;99.90;;;;;;4438556;32;20575;-62
2021/12/05 12:50:34;;;;;;;37.07;34.07;;;6.80;99.90;;;;;;4443476;32;20249;-62
2021/12/05 12:53:13;;;;;;;36.97;34.13;;;6.80;99.90;;;;;;4436201;32;20162;-62
2021/12/05 12:55:43;;;;;;;35.60;32.93;;;6.80;99.90;;;;;;4437430;32;20219;-62
2021/12/05 12:58:12;;;;;;;36.97;34.00;;;6.80;99.90;;;;;;4442229;32;20154;-63
2021/12/05 13:00:43;;;;;;;38.97;35.60;;;6.80;99.90;;;;;;4446376;32;20213;-62
2021/12/05 13:03:28;;;;;;;37.53;34.57;;;6.70;99.90;;;;;;4447967;32;20155;-63
2021/12/05 13:11:48;;;;;;;36.87;33.83;;;6.60;99.90;;;;;;4439683;32;20214;-63
2021/12/05 13:14:17;;;;;;;36.27;33.53;;;6.60;99.90;;;;;;4450694;32;20642;-62
2021/12/05 13:16:46;;;;;;;36.80;33.87;;;6.60;99.90;;;;;;4445198;32;20176;-62
2021/12/05 13:19:16;;;;;;;37.90;35.00;;;6.60;99.90;;;;;;4452160;32;20162;-62
2021/12/05 13:21:45;;;;;;;39.63;36.50;;;6.50;99.90;;;;;;4444375;32;20178;-63
2021/12/05 13:24:23;;;;;;;38.93;35.67;;;6.60;99.90;;;;;;4449131;32;20183;-63
2021/12/05 13:26:52;;;;;;;38.17;34.90;;;6.60;99.90;;;;;;4445389;32;20195;-63
2021/12/05 13:29:21;;;;;;;37.10;34.40;;;6.70;99.90;;;;;;4444856;32;20253;-63
2021/12/05 13:31:53;;;;;;;35.27;32.60;;;6.70;99.90;;;;;;4439936;32;20203;-64
2021/12/05 13:34:31;;;;;;;36.93;34.17;;;6.80;99.90;;;;;;4445540;32;20176;-62
2021/12/05 13:37:19;;;;;;;35.03;32.37;;;6.80;99.90;;;;;;4442056;32;20174;-62
2021/12/05 13:39:49;;;;;;;34.10;31.80;;;6.80;99.90;;;;;;4445306;32;20211;-63
2021/12/05 13:42:19;;;;;;;38.47;35.77;;;6.80;99.90;;;;;;4448210;32;20159;-62
2021/12/05 13:45:11;;;;;;;34.17;31.60;;;6.70;99.90;;;;;;4410223;32;20254;-63
2021/12/05 13:47:44;;;;;;;37.70;34.77;;;6.70;99.90;;;;;;4394714;32;20219;-62
2021/12/05 13:50:42;;;;;;;35.37;32.63;;;6.60;99.90;;;;;;4398282;32;20159;-63
2021/12/05 13:53:19;;;;;;;34.80;31.93;;;6.50;99.90;;;;;;4369184;32;20232;-63
2021/12/05 13:55:59;;;;;;;33.77;31.27;;;6.50;99.90;;;;;;4367653;32;20168;-61
2021/12/05 13:58:40;;;;;;;34.77;31.97;;;6.50;99.90;;;;;;4364291;32;20168;-62
2021/12/05 14:01:11;;;;;;;36.87;34.33;;;6.50;99.90;;;;;;4369384;32;20168;-63
2021/12/05 14:04:08;;;;;;;36.70;34.20;;;6.50;99.90;;;;;;4371406;32;20632;-65
2021/12/05 14:06:41;;;;;;;39.97;37.37;;;6.50;99.90;;;;;;4364403;32;20203;-64
2021/12/05 14:09:12;;;;;;;37.40;35.03;;;6.50;99.90;;;;;;4366598;32;20672;-63
2021/12/05 14:11:45;;;;;;;37.10;34.80;;;6.40;99.90;;;;;;4367604;32;20230;-64
2021/12/05 14:14:16;;;;;;;36.40;33.93;;;6.40;99.90;;;;;;4365152;32;20243;-63
2021/12/05 14:16:45;;;;;;;36.37;34.07;;;6.30;99.90;;;;;;4368720;32;20223;-63
2021/12/05 14:19:16;;;;;;;36.83;34.33;;;6.40;99.90;;;;;;4371131;32;20199;-64
2021/12/05 14:21:47;;;;;;;33.23;31.13;;;6.30;99.90;;;;;;4369223;32;20562;-62
2021/12/05 14:24:15;;;;;;;34.67;32.53;;;6.40;99.90;;;;;;4367936;32;20207;-62
2021/12/05 14:26:44;;;;;;;34.50;32.30;;;6.30;99.90;;;;;;4370675;32;20184;-63
2021/12/05 14:29:15;;;;;;;35.20;32.57;;;6.30;99.90;;;;;;4392111;32;20183;-65
2021/12/05 14:31:45;;;;;;;44.43;40.50;;;6.30;99.90;;;;;;4401768;32;20202;-62
2021/12/05 14:34:12;;;;;;;35.40;32.90;;;6.40;99.90;;;;;;4400628;32;20223;-62
2021/12/05 14:36:42;;;;;;;57.03;51.83;;;6.30;99.90;;;;;;4399445;32;20267;-60
2021/12/05 14:39:20;;;;;;;39.30;36.40;;;6.20;99.90;;;;;;4403197;32;20156;-63
2021/12/05 14:41:51;;;;;;;36.60;34.30;;;6.20;99.90;;;;;;4407496;32;20275;-65
2021/12/05 14:44:21;;;;;;;34.63;31.97;;;6.20;99.90;;;;;;4406527;32;20159;-64
2021/12/05 14:46:54;;;;;;;38.37;35.97;;;6.20;99.90;;;;;;4407392;32;20168;-64
2021/12/05 14:49:23;;;;;;;33.60;31.30;;;6.10;99.90;;;;;;4399569;32;20160;-63
2021/12/05 14:51:51;;;;;;;34.97;32.27;;;6.10;99.90;;;;;;4403459;32;20596;-65
2021/12/05 14:54:28;;;;;;;34.23;31.83;;;6.10;99.90;;;;;;4400478;32;20163;-64
2021/12/05 14:56:57;;;;;;;36.77;34.17;;;6.10;99.90;;;;;;4400887;32;20190;-63
2021/12/05 14:59:26;;;;;;;38.50;35.57;;;6.00;99.90;;;;;;4404443;32;20930;-65
2021/12/05 15:01:56;;;;;;;43.03;39.17;;;6.00;99.90;;;;;;4401765;32;20174;-63
2021/12/05 15:04:28;;;;;;;43.97;40.60;;;6.00;99.90;;;;;;4395725;32;20156;-63
2021/12/05 15:07:04;;;;;;;43.17;39.63;;;6.00;99.90;;;;;;4397674;32;20641;-63
2021/12/05 15:09:35;;;;;;;38.77;35.70;;;6.00;99.90;;;;;;4397969;32;20159;-62
2021/12/05 15:12:09;;;;;;;38.77;35.87;;;5.90;99.90;;;;;;4405266;32;20575;-63
2021/12/05 15:14:39;;;;;;;36.33;33.27;;;5.90;99.90;;;;;;4402043;32;20622;-62
2021/12/05 15:17:13;;;;;;;43.17;39.27;;;5.90;99.90;;;;;;4396477;32;20160;-65
2021/12/05 15:19:43;;;;;;;39.27;35.70;;;5.80;99.90;;;;;;4393180;32;20222;-63
2021/12/05 15:22:12;;;;;;;38.43;35.33;;;5.80;99.90;;;;;;4402638;32;20202;-63
2021/12/05 15:24:39;;;;;;;38.57;35.50;;;5.80;99.90;;;;;;4396235;32;20257;-64
2021/12/05 15:27:16;;;;;;;40.77;37.27;;;5.90;99.90;;;;;;4398018;32;20171;-61
2021/12/05 15:29:50;;;;;;;36.77;34.13;;;5.90;99.90;;;;;;4397575;32;20241;-62
2021/12/05 15:32:19;;;;;;;39.07;36.27;;;5.80;99.90;;;;;;4396442;32;20190;-63
2021/12/05 15:34:49;;;;;;;36.50;33.77;;;5.80;99.90;;;;;;4395964;32;20200;-62
2021/12/05 15:37:15;;;;;;;37.53;34.93;;;5.80;99.90;;;;;;4400279;32;20172;-62
2021/12/05 15:39:47;;;;;;;38.63;35.87;;;5.80;99.90;;;;;;4399026;32;20205;-63
2021/12/05 15:42:22;;;;;;;39.87;36.67;;;5.80;99.90;;;;;;4393102;32;20197;-64
2021/12/05 15:44:50;;;;;;;44.73;41.10;;;5.70;99.90;;;;;;4403186;32;20189;-64
2021/12/05 15:47:20;;;;;;;41.67;38.57;;;5.70;99.90;;;;;;4399443;32;20254;-63
2021/12/05 15:49:59;;;;;;;41.97;38.57;;;5.70;99.90;;;;;;4398309;32;20186;-64
2021/12/05 15:52:33;;;;;;;38.93;36.03;;;5.70;99.90;;;;;;4395086;32;20477;-62
2021/12/05 15:55:04;;;;;;;37.77;34.97;;;5.70;99.90;;;;;;4400055;32;20200;-62
2021/12/05 15:57:36;;;;;;;38.70;35.77;;;5.70;99.90;;;;;;4396713;32;20216;-64
2021/12/05 16:00:14;;;;;;;38.17;35.17;;;5.70;99.90;;;;;;4394324;32;20168;-63
2021/12/05 16:02:46;;;;;;;40.93;37.90;;;5.70;99.90;;;;;;4400306;32;20167;-64
2021/12/05 16:05:16;;;;;;;36.37;33.77;;;5.70;99.90;;;;;;4401932;32;20221;-64
2021/12/05 16:07:43;;;;;;;37.43;34.70;;;5.70;99.90;;;;;;4397405;32;20175;-63
2021/12/05 16:10:14;;;;;;;40.47;37.27;;;5.70;99.90;;;;;;4402246;32;20538;-63
2021/12/05 16:12:44;;;;;;;42.40;39.07;;;5.60;99.90;;;;;;4400952;32;20175;-63
2021/12/05 16:15:12;;;;;;;41.47;38.27;;;5.70;99.90;;;;;;4402274;32;20641;-63
2021/12/05 16:17:41;;;;;;;43.80;40.07;;;5.70;99.90;;;;;;4400012;32;20192;-63
2021/12/05 16:20:16;;;;;;;43.07;39.43;;;5.60;99.90;;;;;;4398320;32;20205;-64
2021/12/05 16:22:57;;;;;;;43.03;39.57;;;5.60;99.90;;;;;;4401856;32;20509;-63
2021/12/05 16:25:25;;;;;;;44.23;40.83;;;5.70;99.90;;;;;;4401668;32;20571;-63
2021/12/05 16:28:01;;;;;;;46.87;43.27;;;5.60;99.90;;;;;;4401164;32;20285;-63
2021/12/05 16:30:32;;;;;;;42.23;39.00;;;5.60;99.90;;;;;;4398676;32;20211;-63
2021/12/05 16:33:00;;;;;;;40.70;37.47;;;5.60;99.90;;;;;;4402542;32;20604;-64
2021/12/05 16:35:31;;;;;;;43.43;40.07;;;5.60;99.90;;;;;;4406298;32;20164;-62
2021/12/05 16:37:58;;;;;;;44.83;41.43;;;5.60;99.90;;;;;;4408165;32;20175;-64
2021/12/05 16:40:26;;;;;;;41.80;38.40;;;5.60;99.90;;;;;;4409047;32;20211;-62
2021/12/05 16:43:10;;;;;;;42.93;39.47;;;5.60;99.90;;;;;;4408051;32;20596;-62
2021/12/05 16:45:38;;;;;;;42.63;39.13;;;5.60;99.90;;;;;;4403318;32;20804;-62
2021/12/05 16:48:06;;;;;;;45.77;41.93;;;5.60;99.90;;;;;;4405872;32;20490;-62
2021/12/05 16:50:34;;;;;;;44.33;40.73;;;5.60;99.90;;;;;;4406045;32;20194;-65
2021/12/05 16:53:01;;;;;;;46.00;42.60;;;5.60;99.90;;;;;;4405331;32;20197;-63
2021/12/05 16:55:30;;;;;;;45.47;41.67;;;5.60;99.90;;;;;;4405954;32;20160;-64
2021/12/05 16:58:06;;;;;;;41.37;37.80;;;5.60;99.90;;;;;;4406968;32;20209;-63